TFFF Airport Information

Runway Information
Runway 10 Length 10826 ft width 147 ft
Elevation 10 ft Threshold 0 ft Heading 80
Runway 28 Length 10826 ft Width 147 ft
Elevation 14 ft Threshold 984 ft Heading 260
Airport Frequencies
Type APP Name FORT DE FR Frequency 121 MHZ
Type ATIS Name ATIS Frequency 127.85 MHZ
Type GND Name GND Frequency 121.9 MHZ
Type TWR Name FORT DE FR Frequency 118.5 MHZ
Airport Navaids
Type VOR-DME Name Fort De France Frequency 113300 KHZ
Type NDB Name Fort De France Frequency 329 KHZ
Airport Weather Information & NOTAM
ADDS - METARS form results

(2021 UTC 15 August 2020)
Data provider http://aviationweather.gov/metar/data/
 
METAR text: TFFF 152000Z AUTO 10009KT 070V130 9999 SCT060 32/23 Q1009 TEMPO 3000 SHRA SCT010CB BKN018TCU
Conditions at: TFFF (LE LAMENTIN/MART, MQ) observed 2000 UTC 15 August 2020
Temperature: 32.0°C (90°F)
Dewpoint: 23.0°C (73°F) [RH = 59%]
Pressure (altimeter): 29.79 inches Hg (1009.0 mb)
Winds: from the E (100 degrees) at 10 MPH (9 knots; 4.6 m/s)
Visibility: 6 or more miles (10+ km)
Ceiling: at least 12,000 feet AGL
Clouds: scattered clouds at 6000 feet AGL
Weather: no significant weather observed at this time

METAR text: TFFF 151930Z AUTO 10010KT 060V120 9999 BKN038 BKN050 OVC070 32/24 Q1009 TEMPO 25005KT 3000 SHRA SCT010CB BKN018TCU
Conditions at: TFFF (LE LAMENTIN/MART, MQ) observed 1930 UTC 15 August 2020
Temperature: 32.0°C (90°F)
Dewpoint: 24.0°C (75°F) [RH = 63%]
Pressure (altimeter): 29.79 inches Hg (1009.0 mb)
Winds: from the E (100 degrees) at 12 MPH (10 knots; 5.1 m/s)
Visibility: 6 or more miles (10+ km)
Ceiling: 3800 feet AGL
Clouds: broken clouds at 3800 feet AGL
broken clouds at 5000 feet AGL
overcast cloud deck at 7000 feet AGL
Weather: no significant weather observed at this time

Forecast for: TFFF (LE LAMENTIN/MART, MQ)
Text: TAF TFFF 151600Z 1518/1618 12008KT 9999 SCT035
Forecast period: 1800 UTC 15 August 2020 to 1800 UTC 16 August 2020
Forecast type: FROM: standard forecast or significant change
Winds: from the ESE (120 degrees) at 9 MPH (8 knots; 4.1 m/s)
Visibility: 6 or more miles (10+ km)
Ceiling: at least 12,000 feet AGL
Clouds: scattered clouds at 3500 feet AGL
Weather: no significant weather forecast for this period
Text: TEMPO 1518/1521 25005KT
Forecast period: 1800 to 2100 UTC 15 August 2020
Forecast type: TEMPORARY: The following changes expected for less than half the time period
Winds: from the WSW (250 degrees) at 6 MPH (5 knots; 2.6 m/s)
Visibility: missing
Ceiling: unknown
Clouds: missing
Weather: no significant weather forecast for this period
Text: TEMPO 1518/1618 3000 SHRA SCT010CB BKN018TCU
Forecast period: 1800 UTC 15 August 2020 to 1800 UTC 16 August 2020
Forecast type: TEMPORARY: The following changes expected for less than half the time period
Visibility: 1.86 miles (2.99 km)
Ceiling: 1800 feet AGL
Clouds: scattered clouds at 1000 feet AGL
broken clouds at 1800 feet AGL
Weather: SHRA  (rain showers)